sensor_id;sensor_type;location;lat;lon;timestamp;temperature;humidity
16178;DHT22;8195;51.220;9.746;2023-03-26T00:02:03;6.30;97.20
16178;DHT22;8195;51.220;9.746;2023-03-26T00:12:24;6.40;97.20
16178;DHT22;8195;51.220;9.746;2023-03-26T00:22:48;6.40;97.20
16178;DHT22;8195;51.220;9.746;2023-03-26T00:33:09;6.40;97.20
16178;DHT22;8195;51.220;9.746;2023-03-26T00:43:34;6.40;97.20
16178;DHT22;8195;51.220;9.746;2023-03-26T00:53:56;6.50;97.20
16178;DHT22;8195;51.220;9.746;2023-03-26T01:04:30;6.50;97.20
16178;DHT22;8195;51.220;9.746;2023-03-26T01:14:56;6.50;97.20
16178;DHT22;8195;51.220;9.746;2023-03-26T01:25:18;6.40;97.20
16178;DHT22;8195;51.220;9.746;2023-03-26T01:35:53;6.40;97.20
16178;DHT22;8195;51.220;9.746;2023-03-26T01:46:16;6.40;97.20
16178;DHT22;8195;51.220;9.746;2023-03-26T02:17:53;6.10;97.20
16178;DHT22;8195;51.220;9.746;2023-03-26T02:28:14;6.10;97.20
16178;DHT22;8195;51.220;9.746;2023-03-26T02:38:35;6.10;97.20
16178;DHT22;8195;51.220;9.746;2023-03-26T02:48:56;6.10;97.20
16178;DHT22;8195;51.220;9.746;2023-03-26T02:59:17;6.10;97.20
16178;DHT22;8195;51.220;9.746;2023-03-26T03:09:38;5.90;97.20
16178;DHT22;8195;51.220;9.746;2023-03-26T03:20:02;5.90;97.20
16178;DHT22;8195;51.220;9.746;2023-03-26T03:30:23;6.00;97.20
16178;DHT22;8195;51.220;9.746;2023-03-26T03:40:45;6.10;97.20
16178;DHT22;8195;51.220;9.746;2023-03-26T03:51:07;6.20;97.20
16178;DHT22;8195;51.220;9.746;2023-03-26T04:01:31;6.30;97.20
16178;DHT22;8195;51.220;9.746;2023-03-26T04:11:55;6.20;97.20
16178;DHT22;8195;51.220;9.746;2023-03-26T04:22:22;6.20;97.20
16178;DHT22;8195;51.220;9.746;2023-03-26T04:32:44;6.30;97.20
16178;DHT22;8195;51.220;9.746;2023-03-26T04:43:10;6.30;97.20
16178;DHT22;8195;51.220;9.746;2023-03-26T04:53:33;6.30;97.20
16178;DHT22;8195;51.220;9.746;2023-03-26T05:03:56;6.30;97.20
16178;DHT22;8195;51.220;9.746;2023-03-26T05:14:20;6.30;97.20
16178;DHT22;8195;51.220;9.746;2023-03-26T05:24:44;6.20;97.20
16178;DHT22;8195;51.220;9.746;2023-03-26T05:35:06;6.30;97.20
16178;DHT22;8195;51.220;9.746;2023-03-26T05:45:27;6.40;97.20
16178;DHT22;8195;51.220;9.746;2023-03-26T05:55:49;6.50;97.20
16178;DHT22;8195;51.220;9.746;2023-03-26T06:06:15;6.60;97.20
16178;DHT22;8195;51.220;9.746;2023-03-26T06:16:37;6.70;97.20
16178;DHT22;8195;51.220;9.746;2023-03-26T06:26:58;6.90;97.20
16178;DHT22;8195;51.220;9.746;2023-03-26T06:37:22;7.00;97.20
16178;DHT22;8195;51.220;9.746;2023-03-26T06:47:45;7.30;97.20
16178;DHT22;8195;51.220;9.746;2023-03-26T06:58:13;7.60;97.20
16178;DHT22;8195;51.220;9.746;2023-03-26T07:08:34;8.70;97.20
16178;DHT22;8195;51.220;9.746;2023-03-26T07:19:07;8.10;97.20
16178;DHT22;8195;51.220;9.746;2023-03-26T07:51:47;8.80;97.20
16178;DHT22;8195;51.220;9.746;2023-03-26T08:23:32;9.10;97.20
16178;DHT22;8195;51.220;9.746;2023-03-26T08:33:58;9.00;97.20
16178;DHT22;8195;51.220;9.746;2023-03-26T08:55:46;9.10;97.20
16178;DHT22;8195;51.220;9.746;2023-03-26T09:06:38;9.10;97.20
16178;DHT22;8195;51.220;9.746;2023-03-26T10:12:17;9.20;97.20
16178;DHT22;8195;51.220;9.746;2023-03-26T10:23:13;9.00;97.20
16178;DHT22;8195;51.220;9.746;2023-03-26T10:34:01;8.70;97.20
16178;DHT22;8195;51.220;9.746;2023-03-26T10:55:36;8.70;97.20
16178;DHT22;8195;51.220;9.746;2023-03-26T11:17:51;8.60;97.20
16178;DHT22;8195;51.220;9.746;2023-03-26T11:50:54;8.60;97.20
16178;DHT22;8195;51.220;9.746;2023-03-26T12:01:51;8.50;97.20
16178;DHT22;8195;51.220;9.746;2023-03-26T12:12:19;8.20;97.20
16178;DHT22;8195;51.220;9.746;2023-03-26T12:22:41;8.20;97.20
16178;DHT22;8195;51.220;9.746;2023-03-26T12:43:46;8.10;97.20
16178;DHT22;8195;51.220;9.746;2023-03-26T13:15:43;7.80;97.20
16178;DHT22;8195;51.220;9.746;2023-03-26T13:37:23;7.80;97.20
16178;DHT22;8195;51.220;9.746;2023-03-26T13:48:06;7.80;97.20
16178;DHT22;8195;51.220;9.746;2023-03-26T13:58:34;7.80;97.20
16178;DHT22;8195;51.220;9.746;2023-03-26T14:09:04;7.70;97.20
16178;DHT22;8195;51.220;9.746;2023-03-26T14:40:28;7.50;97.20
16178;DHT22;8195;51.220;9.746;2023-03-26T15:35:52;7.60;97.20
16178;DHT22;8195;51.220;9.746;2023-03-26T15:46:23;7.60;97.20
16178;DHT22;8195;51.220;9.746;2023-03-26T15:57:02;7.60;97.20
16178;DHT22;8195;51.220;9.746;2023-03-26T16:18:24;7.60;97.20
16178;DHT22;8195;51.220;9.746;2023-03-26T16:39:51;7.40;97.20
16178;DHT22;8195;51.220;9.746;2023-03-26T16:50:20;7.00;97.20
16178;DHT22;8195;51.220;9.746;2023-03-26T17:01:09;6.80;97.20
16178;DHT22;8195;51.220;9.746;2023-03-26T17:33:09;6.40;97.20
16178;DHT22;8195;51.220;9.746;2023-03-26T17:43:50;6.30;97.20
16178;DHT22;8195;51.220;9.746;2023-03-26T17:55:04;6.20;97.20
16178;DHT22;8195;51.220;9.746;2023-03-26T18:05:20;6.40;97.20
16178;DHT22;8195;51.220;9.746;2023-03-26T18:16:13;6.30;97.20
16178;DHT22;8195;51.220;9.746;2023-03-26T18:26:38;6.20;97.20
16178;DHT22;8195;51.220;9.746;2023-03-26T18:47:28;6.40;97.20
16178;DHT22;8195;51.220;9.746;2023-03-26T18:57:52;6.40;97.20
16178;DHT22;8195;51.220;9.746;2023-03-26T19:08:15;6.40;97.20
16178;DHT22;8195;51.220;9.746;2023-03-26T19:18:39;6.30;97.20
16178;DHT22;8195;51.220;9.746;2023-03-26T19:29:01;6.10;97.20
16178;DHT22;8195;51.220;9.746;2023-03-26T19:39:24;6.10;97.20
16178;DHT22;8195;51.220;9.746;2023-03-26T19:49:56;6.10;97.20
16178;DHT22;8195;51.220;9.746;2023-03-26T20:00:18;6.10;97.20
16178;DHT22;8195;51.220;9.746;2023-03-26T20:10:40;5.90;97.20
16178;DHT22;8195;51.220;9.746;2023-03-26T20:21:04;5.90;97.20
16178;DHT22;8195;51.220;9.746;2023-03-26T20:31:28;5.80;97.20
16178;DHT22;8195;51.220;9.746;2023-03-26T20:41:53;5.60;97.20
16178;DHT22;8195;51.220;9.746;2023-03-26T20:52:14;5.50;97.20
16178;DHT22;8195;51.220;9.746;2023-03-26T21:02:35;5.30;97.20
16178;DHT22;8195;51.220;9.746;2023-03-26T21:12:58;5.20;97.20
16178;DHT22;8195;51.220;9.746;2023-03-26T21:23:37;5.00;97.20
16178;DHT22;8195;51.220;9.746;2023-03-26T21:33:59;4.90;97.20
16178;DHT22;8195;51.220;9.746;2023-03-26T21:44:20;4.80;97.20
16178;DHT22;8195;51.220;9.746;2023-03-26T21:54:42;4.80;97.20
16178;DHT22;8195;51.220;9.746;2023-03-26T22:05:11;4.80;97.20
16178;DHT22;8195;51.220;9.746;2023-03-26T22:15:32;4.70;97.20
16178;DHT22;8195;51.220;9.746;2023-03-26T22:25:53;4.60;97.20
16178;DHT22;8195;51.220;9.746;2023-03-26T22:36:14;4.50;97.20
16178;DHT22;8195;51.220;9.746;2023-03-26T22:46:35;4.30;97.20
16178;DHT22;8195;51.220;9.746;2023-03-26T22:56:56;4.20;97.20
16178;DHT22;8195;51.220;9.746;2023-03-26T23:07:17;4.00;97.20
16178;DHT22;8195;51.220;9.746;2023-03-26T23:17:38;4.10;97.20
16178;DHT22;8195;51.220;9.746;2023-03-26T23:27:59;4.00;97.20
16178;DHT22;8195;51.220;9.746;2023-03-26T23:38:20;3.80;97.20
16178;DHT22;8195;51.220;9.746;2023-03-26T23:48:41;3.60;97.20
16178;DHT22;8195;51.220;9.746;2023-03-26T23:59:02;3.50;97.20
